createdAt,value
2023-04-17T00:02:01.942Z,96199.34
2023-04-17T00:04:31.207Z,96201.06
2023-04-17T00:07:03.610Z,96197.78
2023-04-17T00:09:33.468Z,96200.28
2023-04-17T00:12:02.635Z,96195.34
2023-04-17T00:14:31.487Z,96190.25
2023-04-17T00:17:00.382Z,96197.78
2023-04-17T00:19:28.898Z,96199.44
2023-04-17T00:21:57.599Z,96192.69
2023-04-17T00:24:27.885Z,96191.91
2023-04-17T00:26:56.553Z,96187.69
2023-04-17T00:29:25.430Z,96188.31
2023-04-17T00:31:53.970Z,96192.63
2023-04-17T00:34:22.464Z,96189.25
2023-04-17T00:36:51.245Z,96183.31
2023-04-17T00:39:20.138Z,96186.81
2023-04-17T00:41:50.086Z,96184.97
2023-04-17T00:44:18.741Z,96185.78
2023-04-17T00:46:47.570Z,96182.50
2023-04-17T00:49:16.399Z,96188.31
2023-04-17T00:51:45.305Z,96180.06
2023-04-17T00:54:14.432Z,96150.75
2023-04-17T00:56:45.765Z,96183.00
2023-04-17T00:59:18.819Z,96184.09
2023-04-17T01:01:47.614Z,96181.44
2023-04-17T01:04:16.300Z,96184.91
2023-04-17T01:06:45.278Z,96182.28
2023-04-17T01:09:15.420Z,96178.91
2023-04-17T01:11:46.601Z,96180.66
2023-04-17T01:14:18.162Z,96178.22
2023-04-17T01:16:46.807Z,96180.03
2023-04-17T01:19:17.148Z,96176.84
2023-04-17T01:21:46.218Z,96175.09
2023-04-17T01:24:16.130Z,96184.28
2023-04-17T01:26:44.856Z,96175.09
2023-04-17T01:29:13.742Z,96180.81
2023-04-17T01:31:42.571Z,96181.03
2023-04-17T01:34:11.034Z,96176.66
2023-04-17T01:36:39.971Z,96177.38
2023-04-17T01:39:08.896Z,96177.47
2023-04-17T01:41:39.865Z,96180.66
2023-04-17T01:44:08.438Z,96176.34
2023-04-17T01:46:37.427Z,96177.56
2023-04-17T01:49:06.251Z,96172.47
2023-04-17T01:51:35.100Z,96170.81
2023-04-17T01:54:03.650Z,96174.09
2023-04-17T01:56:32.316Z,96173.81
2023-04-17T01:59:02.485Z,96176.34
2023-04-17T02:01:33.094Z,96183.09
2023-04-17T02:04:02.431Z,96174.84
2023-04-17T02:06:35.265Z,96184.28
2023-04-17T02:09:04.760Z,96181.03
2023-04-17T02:11:33.415Z,96181.03
2023-04-17T02:14:04.512Z,96187.84
2023-04-17T02:16:33.255Z,96181.84
2023-04-17T02:19:01.920Z,96183.47
2023-04-17T02:21:31.342Z,96186.94
2023-04-17T02:23:59.692Z,96187.56
2023-04-17T02:26:27.879Z,96183.75
2023-04-17T02:28:56.258Z,96187.13
2023-04-17T02:31:26.563Z,96191.31
2023-04-17T02:33:55.154Z,96191.22
2023-04-17T02:36:23.540Z,96184.28
2023-04-17T02:38:54.402Z,96184.50
2023-04-17T02:41:22.892Z,96182.94
2023-04-17T02:43:51.777Z,96181.59
2023-04-17T02:46:20.584Z,96185.88
2023-04-17T02:48:50.463Z,96182.13
2023-04-17T02:51:19.005Z,96184.69
2023-04-17T02:53:49.469Z,96181.41
2023-04-17T02:56:18.390Z,96177.75
2023-04-17T02:58:47.570Z,96183.56
2023-04-17T03:01:16.256Z,96186.13
2023-04-17T03:03:45.496Z,96187.56
2023-04-17T03:06:16.043Z,96184.09
2023-04-17T03:08:44.511Z,96188.28
2023-04-17T03:11:13.190Z,96186.53
2023-04-17T03:13:41.978Z,96183.91
2023-04-17T03:16:10.774Z,96178.09
2023-04-17T03:18:41.789Z,96180.44
2023-04-17T03:21:10.457Z,96180.56
2023-04-17T03:23:40.196Z,96180.66
2023-04-17T03:26:08.797Z,96183.31
2023-04-17T03:28:37.842Z,96178.38
2023-04-17T03:31:06.750Z,96167.38
2023-04-17T03:33:36.848Z,96179.28
2023-04-17T03:36:05.834Z,96176.13
2023-04-17T03:38:34.976Z,96174.50
2023-04-17T03:41:05.006Z,96180.50
2023-04-17T03:43:33.194Z,96179.03
2023-04-17T03:46:01.940Z,96178.34
2023-04-17T03:48:30.300Z,96180.97
2023-04-17T03:50:59.007Z,96180.88
2023-04-17T03:53:27.419Z,96184.41
2023-04-17T03:55:56.026Z,96180.25
2023-04-17T03:58:27.815Z,96185.34
2023-04-17T04:00:59.279Z,96181.88
2023-04-17T04:03:28.152Z,96180.16
2023-04-17T04:05:57.333Z,96176.59
2023-04-17T04:08:26.719Z,96177.06
2023-04-17T04:10:55.509Z,96184.50
2023-04-17T04:13:25.955Z,96182.47
2023-04-17T04:15:54.359Z,96177.28
2023-04-17T04:18:23.072Z,96176.34
2023-04-17T04:20:51.969Z,96181.19
2023-04-17T04:23:21.288Z,96181.19
2023-04-17T04:25:50.940Z,96181.44
2023-04-17T04:28:19.626Z,96186.75
2023-04-17T04:30:50.833Z,96191.84
2023-04-17T04:33:20.896Z,96184.19
2023-04-17T04:35:51.446Z,96186.94
2023-04-17T04:38:20.535Z,96192.22
2023-04-17T04:40:50.300Z,96184.69
2023-04-17T04:43:20.826Z,96193.84
2023-04-17T04:45:52.390Z,96193.66
2023-04-17T04:48:20.938Z,96190.84
2023-04-17T04:50:49.762Z,96196.56
2023-04-17T04:53:18.660Z,96192.16
2023-04-17T04:55:47.627Z,96191.06
2023-04-17T04:58:16.579Z,96193.41
2023-04-17T05:00:45.416Z,96184.69
2023-04-17T05:03:15.405Z,96190.41
2023-04-17T05:05:45.190Z,96183.47
2023-04-17T05:08:14.230Z,96188.47
2023-04-17T05:10:42.932Z,96184.91
2023-04-17T05:13:14.536Z,96184.00
2023-04-17T05:15:43.495Z,96187.91
2023-04-17T05:18:11.977Z,96185.88
2023-04-17T05:20:44.255Z,96183.94
2023-04-17T05:23:13.193Z,96188.22
2023-04-17T05:25:42.650Z,96195.78
2023-04-17T05:28:11.447Z,96196.69
2023-04-17T05:30:40.216Z,96198.94
2023-04-17T05:33:09.045Z,96203.00
2023-04-17T05:35:41.630Z,96202.72
2023-04-17T05:38:11.922Z,96212.94
2023-04-17T05:40:40.835Z,96219.38
2023-04-17T05:43:10.494Z,96221.84
2023-04-17T05:45:41.644Z,96229.47
2023-04-17T05:48:10.311Z,96228.97
2023-04-17T05:50:39.001Z,96227.94
2023-04-17T05:53:07.964Z,96223.44
2023-04-17T05:55:37.958Z,96228.25
2023-04-17T05:58:16.812Z,96230.78
2023-04-17T06:00:52.022Z,96238.78
2023-04-17T06:03:21.762Z,96248.78
2023-04-17T06:05:50.786Z,96236.56
2023-04-17T06:08:22.384Z,96248.22
2023-04-17T06:10:54.452Z,96243.91
2023-04-17T06:13:23.286Z,96246.28
2023-04-17T06:15:52.641Z,96246.19
2023-04-17T06:18:21.274Z,96248.50
2023-04-17T06:20:49.804Z,96246.91
2023-04-17T06:23:18.538Z,96255.97
2023-04-17T06:25:47.200Z,96256.78
2023-04-17T06:28:17.274Z,96264.34
2023-04-17T06:30:45.921Z,96265.28
2023-04-17T06:33:14.770Z,96260.16
2023-04-17T06:35:44.976Z,96262.41
2023-04-17T06:38:13.719Z,96271.41
2023-04-17T06:40:42.375Z,96260.69
2023-04-17T06:43:11.124Z,96260.09
2023-04-17T06:45:43.316Z,96269.69
2023-04-17T06:48:11.764Z,96263.38
2023-04-17T06:50:40.422Z,96270.41
2023-04-17T06:53:09.125Z,96270.00
2023-04-17T06:55:37.854Z,96273.78
2023-04-17T06:58:07.921Z,96276.94
2023-04-17T07:00:36.796Z,96270.28
2023-04-17T07:03:07.016Z,96276.34
2023-04-17T07:05:35.918Z,96282.13
2023-04-17T07:08:07.510Z,96274.28
2023-04-17T07:10:36.134Z,96278.47
2023-04-17T07:13:04.952Z,96279.19
2023-04-17T07:15:33.586Z,96277.47
2023-04-17T07:18:04.794Z,96283.19
2023-04-17T07:20:34.420Z,96282.34
2023-04-17T07:23:03.430Z,96283.34
2023-04-17T07:25:31.962Z,96277.19
2023-04-17T07:28:01.734Z,96285.59
2023-04-17T07:30:34.273Z,96285.47
2023-04-17T07:33:03.332Z,96289.69
2023-04-17T07:35:32.227Z,96287.03
2023-04-17T07:38:04.225Z,96284.97
2023-04-17T07:40:33.564Z,96283.34
2023-04-17T07:43:02.283Z,96289.56
2023-04-17T07:45:31.005Z,96284.28
2023-04-17T07:47:59.839Z,96290.38
2023-04-17T07:50:28.606Z,96285.44
2023-04-17T07:52:58.026Z,96290.72
2023-04-17T07:55:31.322Z,96296.09
2023-04-17T07:58:04.046Z,96298.50
2023-04-17T08:00:35.816Z,96294.81
2023-04-17T08:03:05.874Z,96298.59
2023-04-17T08:05:34.897Z,96303.13
2023-04-17T08:08:05.980Z,96308.13
2023-04-17T08:10:38.331Z,96296.63
2023-04-17T08:13:08.207Z,96308.56
2023-04-17T08:15:40.997Z,96296.34
2023-04-17T08:18:10.753Z,96297.66
2023-04-17T08:20:43.161Z,96302.53
2023-04-17T08:23:12.805Z,96303.94
2023-04-17T08:25:42.985Z,96306.28
2023-04-17T08:28:11.753Z,96306.84
2023-04-17T08:30:40.850Z,96307.78
2023-04-17T08:33:09.643Z,96306.34
2023-04-17T08:35:41.132Z,96308.22
2023-04-17T08:38:10.693Z,96292.75
2023-04-17T08:40:42.300Z,96319.81
2023-04-17T08:43:17.468Z,96316.38
2023-04-17T08:45:54.736Z,96315.47
2023-04-17T08:48:25.061Z,96310.81
2023-04-17T08:50:54.929Z,96320.16
2023-04-17T08:53:23.945Z,96312.94
2023-04-17T08:55:53.238Z,96310.84
2023-04-17T08:58:28.636Z,96313.19
2023-04-17T09:01:09.034Z,96309.34
2023-04-17T09:03:49.694Z,96307.34
2023-04-17T09:06:18.595Z,96310.50
2023-04-17T09:08:57.280Z,96320.75
2023-04-17T09:11:28.706Z,96311.53
2023-04-17T09:13:58.658Z,96311.88
2023-04-17T09:16:28.643Z,96317.91
2023-04-17T09:19:07.059Z,96314.81
2023-04-17T09:21:39.581Z,96308.84
2023-04-17T09:24:10.225Z,96312.13
2023-04-17T09:26:38.736Z,96307.72
2023-04-17T09:29:12.202Z,96301.53
2023-04-17T09:31:45.448Z,96308.28
2023-04-17T09:34:16.744Z,96309.47
2023-04-17T09:36:48.109Z,96302.25
2023-04-17T09:39:21.282Z,96293.97
2023-04-17T09:41:49.774Z,96298.56
2023-04-17T09:44:28.246Z,96305.34
2023-04-17T09:46:57.493Z,96292.28
2023-04-17T09:49:34.008Z,96296.78
2023-04-17T09:52:02.818Z,96304.63
2023-04-17T09:54:33.039Z,96300.16
2023-04-17T09:57:03.957Z,96292.16
2023-04-17T09:59:35.093Z,96285.00
2023-04-17T10:02:05.859Z,96280.34
2023-04-17T10:04:35.015Z,96282.09
2023-04-17T10:07:06.898Z,96276.59
2023-04-17T10:09:35.487Z,96287.63
2023-04-17T10:12:05.163Z,96282.09
2023-04-17T10:14:37.896Z,96277.03
2023-04-17T10:17:24.136Z,96284.63
2023-04-17T10:19:53.130Z,96272.91
2023-04-17T10:22:31.609Z,96274.47
2023-04-17T10:25:23.648Z,96270.69
2023-04-17T10:27:53.699Z,96271.84
2023-04-17T10:30:29.456Z,96272.19
2023-04-17T10:33:28.252Z,96268.72
2023-04-17T10:35:57.387Z,96263.75
2023-04-17T10:38:37.067Z,96263.16
2023-04-17T10:41:09.609Z,96262.63
2023-04-17T10:43:43.012Z,96255.09
2023-04-17T10:46:15.134Z,96244.34
2023-04-17T10:48:49.909Z,96249.13
2023-04-17T10:51:44.950Z,96244.22
2023-04-17T10:54:15.849Z,96242.88
2023-04-17T10:56:48.470Z,96234.25
2023-04-17T10:59:23.723Z,96240.69
2023-04-17T11:02:06.895Z,96239.00
2023-04-17T11:04:36.042Z,96232.13
2023-04-17T11:07:07.506Z,96229.44
2023-04-17T11:09:36.499Z,96230.03
2023-04-17T11:12:09.937Z,96220.78
2023-04-17T11:14:42.899Z,96221.56
2023-04-17T11:17:13.069Z,96225.28
2023-04-17T11:19:41.666Z,96223.09
2023-04-17T11:22:14.517Z,96213.84
2023-04-17T11:24:43.724Z,96203.44
2023-04-17T11:27:13.146Z,96215.47
2023-04-17T11:29:41.818Z,96205.09
2023-04-17T11:32:13.930Z,96199.63
2023-04-17T11:34:43.551Z,96206.50
2023-04-17T11:37:15.293Z,96204.91
2023-04-17T11:39:44.708Z,96205.31
2023-04-17T11:42:13.635Z,96197.06
2023-04-17T11:44:44.567Z,96200.63
2023-04-17T11:47:15.077Z,96194.13
2023-04-17T11:49:44.226Z,96199.47
2023-04-17T11:52:14.831Z,96195.63
2023-04-17T11:54:44.536Z,96196.88
2023-04-17T11:57:14.611Z,96193.78
2023-04-17T11:59:45.895Z,96184.81
2023-04-17T12:02:18.076Z,96193.00
2023-04-17T12:04:47.339Z,96194.94
2023-04-17T12:07:27.332Z,96199.19
2023-04-17T12:09:58.897Z,96188.59
2023-04-17T12:12:27.217Z,96206.31
2023-04-17T12:14:55.935Z,96202.59
2023-04-17T12:17:26.146Z,96202.16
2023-04-17T12:19:55.108Z,96204.25
2023-04-17T12:22:25.210Z,96208.66
2023-04-17T12:24:58.852Z,96212.13
2023-04-17T12:27:33.246Z,96210.44
2023-04-17T12:30:01.979Z,96218.06
2023-04-17T12:32:33.252Z,96214.28
2023-04-17T12:35:02.126Z,96219.94
2023-04-17T12:37:30.562Z,96214.78
2023-04-17T12:39:59.669Z,96208.00
2023-04-17T12:42:31.411Z,96206.38
2023-04-17T12:45:03.602Z,96206.09
2023-04-17T12:47:33.972Z,96209.63
2023-04-17T12:50:02.855Z,96208.41
2023-04-17T12:52:32.141Z,96212.63
2023-04-17T12:55:01.407Z,96200.31
2023-04-17T12:57:30.479Z,96199.38
2023-04-17T12:59:59.246Z,96205.19
2023-04-17T13:02:28.124Z,96199.75
2023-04-17T13:04:58.242Z,96196.97
2023-04-17T13:07:27.196Z,96206.97
2023-04-17T13:09:55.795Z,96196.13
2023-04-17T13:12:24.229Z,96195.88
2023-04-17T13:14:53.425Z,96194.91
2023-04-17T13:17:27.451Z,96191.66
2023-04-17T13:19:57.572Z,96187.84
2023-04-17T13:22:27.196Z,96180.16
2023-04-17T13:24:57.293Z,96186.38
2023-04-17T13:27:25.825Z,96178.06
2023-04-17T13:29:54.402Z,96173.06
2023-04-17T13:32:23.281Z,96175.25
2023-04-17T13:34:55.487Z,96182.16
2023-04-17T13:37:27.097Z,96191.47
2023-04-17T13:39:55.452Z,96190.00
2023-04-17T13:42:28.244Z,96188.91
2023-04-17T13:44:57.190Z,96189.69
2023-04-17T13:47:26.950Z,96180.88
2023-04-17T13:49:56.720Z,96177.91
2023-04-17T13:52:27.287Z,96184.72
2023-04-17T13:54:59.843Z,96181.31
2023-04-17T13:57:28.889Z,96182.38
2023-04-17T14:00:00.390Z,96191.19
2023-04-17T14:02:30.170Z,96174.38
2023-04-17T14:04:59.085Z,96187.41
2023-04-17T14:07:30.292Z,96176.69
2023-04-17T14:09:59.313Z,96183.03
2023-04-17T14:12:28.301Z,96174.66
2023-04-17T14:14:58.228Z,96183.47
2023-04-17T14:17:27.351Z,96178.16
2023-04-17T14:19:55.851Z,96180.88
2023-04-17T14:22:24.578Z,96177.06
2023-04-17T14:24:54.852Z,96171.78
2023-04-17T14:27:26.070Z,96168.97
2023-04-17T14:29:58.857Z,96172.38
2023-04-17T14:32:29.511Z,96171.25
2023-04-17T14:34:58.298Z,96165.31
2023-04-17T14:37:27.134Z,96169.66
2023-04-17T14:39:57.357Z,96162.88
2023-04-17T14:42:26.772Z,96157.72
2023-04-17T14:44:55.359Z,96168.06
2023-04-17T14:47:28.728Z,96159.47
2023-04-17T14:50:01.333Z,96167.22
2023-04-17T14:52:30.104Z,96174.25
2023-04-17T14:55:00.486Z,96172.78
2023-04-17T14:57:29.248Z,96170.03
2023-04-17T14:59:57.868Z,96170.59
2023-04-17T15:02:27.240Z,96176.56
2023-04-17T15:04:56.822Z,96173.28
2023-04-17T15:07:25.584Z,96169.25
2023-04-17T15:09:56.311Z,96171.81
2023-04-17T15:12:26.665Z,96171.53
2023-04-17T15:14:56.703Z,96171.41
2023-04-17T15:17:25.605Z,96168.03
2023-04-17T15:19:57.568Z,96172.47
2023-04-17T15:22:27.133Z,96173.44
2023-04-17T15:24:56.064Z,96166.53
2023-04-17T15:27:26.083Z,96168.03
2023-04-17T15:29:55.445Z,96171.00
2023-04-17T15:32:24.682Z,96168.81
2023-04-17T15:34:53.376Z,96173.03
2023-04-17T15:37:22.053Z,96179.41
2023-04-17T15:39:51.396Z,96180.47
2023-04-17T15:42:20.557Z,96184.53
2023-04-17T15:44:53.427Z,96180.69
2023-04-17T15:47:22.599Z,96181.38
2023-04-17T15:49:51.639Z,96181.25
2023-04-17T15:52:20.382Z,96177.31
2023-04-17T15:54:49.355Z,96179.44
2023-04-17T15:57:17.980Z,96171.72
2023-04-17T15:59:46.694Z,96176.19
2023-04-17T16:02:17.030Z,96175.50
2023-04-17T16:04:45.554Z,96178.63
2023-04-17T16:07:14.525Z,96173.88
2023-04-17T16:09:44.632Z,96175.22
2023-04-17T16:12:14.169Z,96112.50
2023-04-17T16:14:46.858Z,96169.31
2023-04-17T16:17:17.924Z,96170.06
2023-04-17T16:19:49.611Z,96171.25
2023-04-17T16:22:19.591Z,96172.44
2023-04-17T16:24:47.969Z,96173.28
2023-04-17T16:27:16.452Z,96172.44
2023-04-17T16:29:45.953Z,96168.44
2023-04-17T16:32:15.699Z,96161.13
2023-04-17T16:34:49.039Z,96134.50
2023-04-17T16:37:18.179Z,96162.56
2023-04-17T16:39:47.529Z,96170.13
2023-04-17T16:42:18.092Z,96170.59
2023-04-17T16:44:47.364Z,96170.56
2023-04-17T16:47:16.765Z,96181.09
2023-04-17T16:49:45.747Z,96186.72
2023-04-17T16:52:15.671Z,96202.53
2023-04-17T16:54:47.028Z,96223.69
2023-04-17T16:57:19.816Z,96222.66
2023-04-17T16:59:50.921Z,96225.19
2023-04-17T17:02:22.226Z,96193.06
2023-04-17T17:04:50.795Z,96217.88
2023-04-17T17:07:21.438Z,96217.09
2023-04-17T17:09:50.246Z,96215.50
2023-04-17T17:12:19.381Z,96224.16
2023-04-17T17:14:50.853Z,96214.16
2023-04-17T17:17:19.281Z,96172.22
2023-04-17T17:19:47.985Z,96212.06
2023-04-17T17:22:17.414Z,96212.19
2023-04-17T17:24:47.625Z,96207.28
2023-04-17T17:27:18.265Z,96196.25
2023-04-17T17:29:47.278Z,96207.53
2023-04-17T17:32:19.266Z,96199.25
2023-04-17T17:34:48.090Z,96195.75
2023-04-17T17:37:16.388Z,96200.66
2023-04-17T17:39:48.521Z,96200.41
2023-04-17T17:42:17.427Z,96202.75
2023-04-17T17:44:46.711Z,96206.94
2023-04-17T17:47:15.200Z,96195.63
2023-04-17T17:49:44.340Z,96199.47
2023-04-17T17:52:12.915Z,96190.88
2023-04-17T17:54:51.924Z,96201.09
2023-04-17T17:57:20.868Z,96200.28
2023-04-17T17:59:49.563Z,96201.00
2023-04-17T18:02:18.223Z,96202.53
2023-04-17T18:04:49.377Z,96189.91
2023-04-17T18:07:18.072Z,96206.69
2023-04-17T18:09:50.178Z,96215.22
2023-04-17T18:12:20.770Z,96215.66
2023-04-17T18:14:50.012Z,96216.91
2023-04-17T18:17:18.834Z,96221.44
2023-04-17T18:19:47.635Z,96228.75
2023-04-17T18:22:16.573Z,96213.03
2023-04-17T18:24:45.722Z,96227.59
2023-04-17T18:27:17.818Z,96236.44
2023-04-17T18:29:48.553Z,96214.16
2023-04-17T18:32:17.328Z,96240.28
2023-04-17T18:34:49.407Z,96244.34
2023-04-17T18:37:20.503Z,96248.44
2023-04-17T18:39:49.178Z,96251.81
2023-04-17T18:42:17.951Z,96268.34
2023-04-17T18:44:48.989Z,96267.63
2023-04-17T18:47:17.481Z,96269.13
2023-04-17T18:49:51.155Z,96272.53
2023-04-17T18:52:19.738Z,96281.50
2023-04-17T18:54:48.473Z,96287.22
2023-04-17T18:57:19.134Z,96278.59
2023-04-17T18:59:49.733Z,96281.16
2023-04-17T19:02:18.741Z,96293.53
2023-04-17T19:04:47.363Z,96280.94
2023-04-17T19:07:18.244Z,96288.03
2023-04-17T19:09:49.127Z,96279.97
2023-04-17T19:12:18.313Z,96287.53
2023-04-17T19:14:48.533Z,96288.47
2023-04-17T19:17:17.534Z,96294.53
2023-04-17T19:19:45.999Z,96288.59
2023-04-17T19:22:16.099Z,96294.63
2023-04-17T19:24:50.150Z,96300.69
2023-04-17T19:27:18.889Z,96298.34
2023-04-17T19:29:49.387Z,96293.22
2023-04-17T19:32:19.054Z,96297.28
2023-04-17T19:34:47.669Z,96299.00
2023-04-17T19:37:16.482Z,96296.56
2023-04-17T19:39:44.921Z,96279.91
2023-04-17T19:42:13.821Z,96282.69
2023-04-17T19:44:43.506Z,96286.19
2023-04-17T19:47:15.919Z,96284.63
2023-04-17T19:49:45.076Z,96291.72
2023-04-17T19:52:16.580Z,96302.06
2023-04-17T19:54:51.276Z,96292.78
2023-04-17T19:57:19.955Z,96290.91
2023-04-17T19:59:54.821Z,96295.94
2023-04-17T20:02:25.067Z,96294.88
2023-04-17T20:04:53.668Z,96294.88
2023-04-17T20:07:22.303Z,96290.59
2023-04-17T20:09:51.160Z,96288.03
2023-04-17T20:12:22.153Z,96270.41
2023-04-17T20:14:52.767Z,96282.91
2023-04-17T20:17:24.459Z,96273.31
2023-04-17T20:19:54.536Z,96279.56
2023-04-17T20:22:23.109Z,96281.34
2023-04-17T20:24:51.709Z,96290.59
2023-04-17T20:27:23.360Z,96276.16
2023-04-17T20:29:52.441Z,96275.44
2023-04-17T20:32:21.757Z,96272.38
2023-04-17T20:34:50.762Z,96276.59
2023-04-17T20:37:22.480Z,96272.28
2023-04-17T20:39:52.674Z,96272.59
2023-04-17T20:42:22.512Z,96274.91
2023-04-17T20:44:51.814Z,96275.09
2023-04-17T20:47:20.817Z,96268.34
2023-04-17T20:49:51.143Z,96271.97
2023-04-17T20:52:21.049Z,96277.66
2023-04-17T20:54:52.408Z,96274.41
2023-04-17T20:57:22.993Z,96273.69
2023-04-17T20:59:55.864Z,96278.19
2023-04-17T21:02:26.719Z,96278.72
2023-04-17T21:04:55.452Z,96275.84
2023-04-17T21:07:25.852Z,96267.47
2023-04-17T21:09:57.483Z,96272.09
2023-04-17T21:12:26.222Z,96269.25
2023-04-17T21:14:55.006Z,96265.97
2023-04-17T21:17:23.839Z,96210.53
2023-04-17T21:19:52.846Z,96269.34
2023-04-17T21:22:21.768Z,96270.16
2023-04-17T21:24:52.186Z,96277.53
2023-04-17T21:27:21.144Z,96267.19
2023-04-17T21:29:50.268Z,96271.38
2023-04-17T21:32:19.265Z,96268.00
2023-04-17T21:34:47.715Z,96262.91
2023-04-17T21:37:18.374Z,96266.75
2023-04-17T21:39:48.792Z,96255.50
2023-04-17T21:42:21.431Z,96257.13
2023-04-17T21:44:50.167Z,96262.16
2023-04-17T21:47:20.018Z,96260.31
2023-04-17T21:49:49.004Z,96256.16
2023-04-17T21:52:18.217Z,96255.81
2023-04-17T21:54:47.571Z,96261.53
2023-04-17T21:57:23.809Z,96264.69
2023-04-17T21:59:54.094Z,96266.31
2023-04-17T22:02:25.321Z,96267.75
2023-04-17T22:04:54.252Z,96262.53
2023-04-17T22:07:23.288Z,96258.94
2023-04-17T22:09:52.310Z,96260.34
2023-04-17T22:12:21.215Z,96262.13
2023-04-17T22:14:50.322Z,96265.38
2023-04-17T22:17:20.682Z,96260.16
2023-04-17T22:19:49.106Z,96267.50
2023-04-17T22:22:17.766Z,96262.38
2023-04-17T22:24:46.596Z,96265.75
2023-04-17T22:27:15.272Z,96271.00
2023-04-17T22:29:44.153Z,96273.53
2023-04-17T22:32:12.804Z,96270.88
2023-04-17T22:34:43.024Z,96277.72
2023-04-17T22:37:11.329Z,96270.75
2023-04-17T22:39:40.076Z,96258.88
2023-04-17T22:42:11.352Z,96265.03
2023-04-17T22:44:40.448Z,96268.50
2023-04-17T22:47:09.285Z,96266.88
2023-04-17T22:49:38.244Z,96271.19
2023-04-17T22:52:08.363Z,96262.00
2023-04-17T22:54:37.050Z,96274.06
2023-04-17T22:57:06.007Z,96267.13
2023-04-17T22:59:35.062Z,96265.38
2023-04-17T23:02:04.666Z,96271.19
2023-04-17T23:04:33.328Z,96271.78
2023-04-17T23:07:03.247Z,96265.88
2023-04-17T23:09:33.452Z,96268.44
2023-04-17T23:12:03.666Z,96263.50
2023-04-17T23:14:32.731Z,96260.84
2023-04-17T23:17:01.866Z,96268.50
2023-04-17T23:19:30.589Z,96271.00
2023-04-17T23:22:01.306Z,96265.88
2023-04-17T23:24:33.696Z,96265.88
2023-04-17T23:27:03.890Z,96265.03
2023-04-17T23:29:32.775Z,96260.84
2023-04-17T23:32:01.815Z,96259.22
2023-04-17T23:34:33.439Z,96261.78
2023-04-17T23:37:02.841Z,96254.22
2023-04-17T23:39:31.727Z,96255.22
2023-04-17T23:42:00.774Z,96255.22
2023-04-17T23:44:30.991Z,96260.28
2023-04-17T23:47:00.208Z,96251.06
2023-04-17T23:49:29.254Z,96234.94
2023-04-17T23:51:57.896Z,96252.91
2023-04-17T23:54:28.941Z,96241.94
2023-04-17T23:56:58.476Z,96256.28
2023-04-17T23:59:29.787Z,96247.66
